There are multiple Weather-warnings   Click here for more information


Meteo18 Weather Cam more information Meteo18 Weather Cam


Thunder radar more information blitzortung!


warning for Snow/Ice more information rain snow radar


Visit our other weather sites:

Template documentation
and downloads

And another site



Weather Underground History page Text

Daily Summary for January 2, 2018 Units:  Both    English   Metric
« Previous Day
Next Day »
Daily Weekly Monthly Yearly Custom
  High: Low: Average:
Temperature: TemperatureC °F /  -17.8 °C 3.8 °F /  -15.7 °C 7 °F /  -13.9 °C
Dew Point: DewpointC °F /  -17.8 °C 2.7 °F /  -16.3 °C 5.9 °F /  -14.5 °C
Humidity: Humidity % 84 % 93 %
Wind Speed: WindSpeedKMH mph /  0 km/h - 9.5 mph /  15.3 km/h
Wind Gust: WindSpeedGustKMH mph /  0 km/h - -
Wind:- - SW
Pressure: PressurehPa in /  0 hPa 1013.1 in /  34303.6 hPa -
Precipitation: 2.0 in /  50.8 mm    
Historical Graphs
 
 
Tabular Data for January 2, 2018
Time Temperature Dew Point Pressure Wind Wind Speed Wind Gust Humidity Rainfall Rate (Hourly)
TemperatureC °F /  -17.8 °C DewpointC °F /  -17.8 °C PressurehPa in /  0 hPa Calm     Humidity % HourlyPrecipMM in /  0 mm
00:00 6.6 °F /  -14.1 °C 4.1 °F /  -15.5 °C 1016.5 in /  34418.7 hPa West 9.7 mph /  15.6 km/h 16.1 mph /  25.9 km/h 84 % 0.0 in /  0 mm
00:04 6.6 °F /  -14.1 °C 4.3 °F /  -15.4 °C 1016.8 in /  34428.8 hPa West 19.5 mph /  31.4 km/h 25.7 mph /  41.4 km/h 85 % 0.0 in /  0 mm
00:10 6.6 °F /  -14.1 °C 4.3 °F /  -15.4 °C 1016.8 in /  34428.8 hPa West 14.3 mph /  23 km/h 24.1 mph /  38.8 km/h 85 % 0.0 in /  0 mm
00:16 6.4 °F /  -14.2 °C 4.1 °F /  -15.5 °C 1016.8 in /  34428.8 hPa West 14.3 mph /  23 km/h 19.3 mph /  31.1 km/h 85 % 0.0 in /  0 mm
00:22 6.4 °F /  -14.2 °C 4.2 °F /  -15.4 °C 1017.2 in /  34442.4 hPa WSW 24.1 mph /  38.8 km/h 24.1 mph /  38.8 km/h 86 % 0.0 in /  0 mm
00:28 6.3 °F /  -14.3 °C 4.1 °F /  -15.5 °C 1017.2 in /  34442.4 hPa WSW 14.3 mph /  23 km/h 24.1 mph /  38.8 km/h 86 % 0.0 in /  0 mm
00:34 6.3 °F /  -14.3 °C 4.1 °F /  -15.5 °C 1017.2 in /  34442.4 hPa WSW 13.0 mph /  20.9 km/h 20.9 mph /  33.6 km/h 86 % 0.0 in /  0 mm
00:36 6.3 °F /  -14.3 °C 4.1 °F /  -15.5 °C 1017.2 in /  34442.4 hPa WSW 7.9 mph /  12.7 km/h 27.4 mph /  44.1 km/h 86 % 0.0 in /  0 mm
00:42 6.3 °F /  -14.3 °C 4.1 °F /  -15.5 °C 1017.2 in /  34442.4 hPa West 17.7 mph /  28.5 km/h 20.9 mph /  33.6 km/h 86 % 0.0 in /  0 mm
00:48 6.3 °F /  -14.3 °C 4.1 °F /  -15.5 °C 1017.5 in /  34452.6 hPa West 13.0 mph /  20.9 km/h 19.3 mph /  31.1 km/h 86 % 0.0 in /  0 mm
00:54 6.1 °F /  -14.4 °C 4.1 °F /  -15.5 °C 1017.5 in /  34452.6 hPa West 14.3 mph /  23 km/h 19.3 mph /  31.1 km/h 87 % 0.0 in /  0 mm
01:00 6.1 °F /  -14.4 °C 4.1 °F /  -15.5 °C 1017.2 in /  34442.4 hPa West 13.0 mph /  20.9 km/h 27.4 mph /  44.1 km/h 87 % 0.0 in /  0 mm
01:06 6.1 °F /  -14.4 °C 4.1 °F /  -15.5 °C 1017.5 in /  34452.6 hPa West 17.7 mph /  28.5 km/h 20.9 mph /  33.6 km/h 87 % 0.0 in /  0 mm
01:12 6.1 °F /  -14.4 °C 4.1 °F /  -15.5 °C 1017.5 in /  34452.6 hPa West 14.3 mph /  23 km/h 19.3 mph /  31.1 km/h 87 % 0.0 in /  0 mm
01:18 6.0 °F /  -14.4 °C 4.0 °F /  -15.6 °C 1017.5 in /  34452.6 hPa West 14.3 mph /  23 km/h 17.7 mph /  28.5 km/h 87 % 0.0 in /  0 mm
01:24 6.0 °F /  -14.4 °C 4.0 °F /  -15.6 °C 1017.5 in /  34452.6 hPa WNW 9.7 mph /  15.6 km/h 16.1 mph /  25.9 km/h 87 % 0.0 in /  0 mm
01:32 6.0 °F /  -14.4 °C 4.0 °F /  -15.6 °C 1017.8 in /  34462.7 hPa West 17.7 mph /  28.5 km/h 27.4 mph /  44.1 km/h 87 % 0.0 in /  0 mm
01:38 5.9 °F /  -14.5 °C 3.9 °F /  -15.6 °C 1017.8 in /  34462.7 hPa WSW 16.3 mph /  26.2 km/h 20.9 mph /  33.6 km/h 87 % 0.0 in /  0 mm
01:44 5.8 °F /  -14.6 °C 3.8 °F /  -15.7 °C 1017.5 in /  34452.6 hPa West 11.1 mph /  17.9 km/h 20.9 mph /  33.6 km/h 87 % 0.0 in /  0 mm
01:50 5.7 °F /  -14.6 °C 3.9 °F /  -15.6 °C 1017.8 in /  34462.7 hPa West 9.7 mph /  15.6 km/h 17.7 mph /  28.5 km/h 88 % 0.0 in /  0 mm
01:58 5.7 °F /  -14.6 °C 3.9 °F /  -15.6 °C 1017.8 in /  34462.7 hPa West 17.7 mph /  28.5 km/h 20.9 mph /  33.6 km/h 88 % 0.0 in /  0 mm
02:04 5.6 °F /  -14.7 °C 3.8 °F /  -15.7 °C 1017.8 in /  34462.7 hPa WSW 14.3 mph /  23 km/h 17.7 mph /  28.5 km/h 88 % 0.0 in /  0 mm
02:08 5.5 °F /  -14.7 °C 3.7 °F /  -15.7 °C 1017.8 in /  34462.7 hPa WSW 9.7 mph /  15.6 km/h 20.9 mph /  33.6 km/h 88 % 0.0 in /  0 mm
02:14 5.5 °F /  -14.7 °C 3.7 °F /  -15.7 °C 1017.8 in /  34462.7 hPa WSW 13.0 mph /  20.9 km/h 17.7 mph /  28.5 km/h 88 % 0.0 in /  0 mm
02:22 5.4 °F /  -14.8 °C 3.6 °F /  -15.8 °C 1017.8 in /  34462.7 hPa SW 4.7 mph /  7.6 km/h 16.1 mph /  25.9 km/h 88 % 0.0 in /  0 mm
02:28 5.3 °F /  -14.8 °C 3.6 °F /  -15.8 °C 1018.2 in /  34476.3 hPa West 11.1 mph /  17.9 km/h 20.9 mph /  33.6 km/h 89 % 0.0 in /  0 mm
02:34 5.3 °F /  -14.8 °C 3.6 °F /  -15.8 °C 1018.2 in /  34476.3 hPa West 11.1 mph /  17.9 km/h 16.1 mph /  25.9 km/h 89 % 0.0 in /  0 mm
02:40 5.3 °F /  -14.8 °C 3.6 °F /  -15.8 °C 1018.2 in /  34476.3 hPa West 13.0 mph /  20.9 km/h 19.3 mph /  31.1 km/h 89 % 0.0 in /  0 mm
02:46 5.3 °F /  -14.8 °C 3.6 °F /  -15.8 °C 1018.5 in /  34486.4 hPa WSW 9.7 mph /  15.6 km/h 19.3 mph /  31.1 km/h 89 % 0.0 in /  0 mm
02:52 5.3 °F /  -14.8 °C 3.6 °F /  -15.8 °C 1018.5 in /  34486.4 hPa WSW 17.7 mph /  28.5 km/h 20.9 mph /  33.6 km/h 89 % 0.0 in /  0 mm
02:58 5.3 °F /  -14.8 °C 3.5 °F /  -15.8 °C 1018.5 in /  34486.4 hPa WSW 11.1 mph /  17.9 km/h 16.1 mph /  25.9 km/h 88 % 0.0 in /  0 mm
03:04 5.2 °F /  -14.9 °C 3.5 °F /  -15.8 °C 1018.5 in /  34486.4 hPa WSW 9.7 mph /  15.6 km/h 19.3 mph /  31.1 km/h 89 % 0.0 in /  0 mm
03:12 5.2 °F /  -14.9 °C 3.5 °F /  -15.8 °C 1018.8 in /  34496.6 hPa WSW 11.1 mph /  17.9 km/h 16.1 mph /  25.9 km/h 89 % 0.0 in /  0 mm
03:18 5.2 °F /  -14.9 °C 3.5 °F /  -15.8 °C 1018.8 in /  34496.6 hPa West 6.4 mph /  10.3 km/h 16.1 mph /  25.9 km/h 89 % 0.0 in /  0 mm
03:32 5.2 °F /  -14.9 °C 3.5 °F /  -15.8 °C 1018.8 in /  34496.6 hPa WSW 13.0 mph /  20.9 km/h 14.5 mph /  23.3 km/h 89 % 0.0 in /  0 mm
03:36 5.2 °F /  -14.9 °C 3.5 °F /  -15.8 °C 1018.8 in /  34496.6 hPa WSW 9.7 mph /  15.6 km/h 17.7 mph /  28.5 km/h 89 % 0.0 in /  0 mm
03:44 5.1 °F /  -14.9 °C 3.4 °F /  -15.9 °C 1018.8 in /  34496.6 hPa SW 9.7 mph /  15.6 km/h 16.1 mph /  25.9 km/h 89 % 0.0 in /  0 mm
03:50 5.1 °F /  -14.9 °C 3.6 °F /  -15.8 °C 1018.8 in /  34496.6 hPa WSW 6.4 mph /  10.3 km/h 14.5 mph /  23.3 km/h 90 % 0.0 in /  0 mm
03:56 4.9 °F /  -15.1 °C 3.2 °F /  -16 °C 1018.8 in /  34496.6 hPa SW 11.1 mph /  17.9 km/h 17.7 mph /  28.5 km/h 89 % 0.0 in /  0 mm
04:02 4.9 °F /  -15.1 °C 3.4 °F /  -15.9 °C 1018.8 in /  34496.6 hPa WSW 11.1 mph /  17.9 km/h 19.3 mph /  31.1 km/h 90 % 0.0 in /  0 mm
04:06 4.9 °F /  -15.1 °C 3.4 °F /  -15.9 °C 1018.8 in /  34496.6 hPa WSW 7.9 mph /  12.7 km/h 17.7 mph /  28.5 km/h 90 % 0.0 in /  0 mm
04:14 4.9 °F /  -15.1 °C 3.4 °F /  -15.9 °C 1018.8 in /  34496.6 hPa WSW 13.0 mph /  20.9 km/h 19.3 mph /  31.1 km/h 90 % 0.0 in /  0 mm
04:20 4.8 °F /  -15.1 °C 3.3 °F /  -15.9 °C 1018.8 in /  34496.6 hPa SW 13.0 mph /  20.9 km/h 17.7 mph /  28.5 km/h 90 % 0.0 in /  0 mm
04:26 4.8 °F /  -15.1 °C 3.3 °F /  -15.9 °C 1018.8 in /  34496.6 hPa WSW 6.4 mph /  10.3 km/h 14.5 mph /  23.3 km/h 90 % 0.0 in /  0 mm
04:38 4.8 °F /  -15.1 °C 3.3 °F /  -15.9 °C 1018.8 in /  34496.6 hPa West 16.3 mph /  26.2 km/h 17.7 mph /  28.5 km/h 90 % 0.0 in /  0 mm
04:44 4.7 °F /  -15.2 °C 3.2 °F /  -16 °C 1018.8 in /  34496.6 hPa WSW 14.3 mph /  23 km/h 14.5 mph /  23.3 km/h 90 % 0.0 in /  0 mm
04:50 4.7 °F /  -15.2 °C 3.2 °F /  -16 °C 1019.2 in /  34510.1 hPa WSW 11.1 mph /  17.9 km/h 19.3 mph /  31.1 km/h 90 % 0.0 in /  0 mm
04:56 4.7 °F /  -15.2 °C 3.2 °F /  -16 °C 1018.8 in /  34496.6 hPa WSW 11.1 mph /  17.9 km/h 14.5 mph /  23.3 km/h 90 % 0.0 in /  0 mm
05:02 4.7 °F /  -15.2 °C 3.2 °F /  -16 °C 1019.2 in /  34510.1 hPa SW 6.4 mph /  10.3 km/h 14.5 mph /  23.3 km/h 90 % 0.0 in /  0 mm
05:09 4.7 °F /  -15.2 °C 3.4 °F /  -15.9 °C 1019.2 in /  34510.1 hPa WSW 6.4 mph /  10.3 km/h 14.5 mph /  23.3 km/h 91 % 0.0 in /  0 mm
05:15 4.7 °F /  -15.2 °C 3.4 °F /  -15.9 °C 1019.2 in /  34510.1 hPa WSW 7.9 mph /  12.7 km/h 9.7 mph /  15.6 km/h 91 % 0.0 in /  0 mm
05:21 4.7 °F /  -15.2 °C 3.4 °F /  -15.9 °C 1019.2 in /  34510.1 hPa WSW 4.7 mph /  7.6 km/h 4.8 mph /  7.7 km/h 91 % 0.0 in /  0 mm
05:33 4.7 °F /  -15.2 °C 3.2 °F /  -16 °C 1019.2 in /  34510.1 hPa SW 3.2 mph /  5.1 km/h 4.8 mph /  7.7 km/h 90 % 0.0 in /  0 mm
05:39 4.6 °F /  -15.2 °C 3.1 °F /  -16.1 °C 1019.2 in /  34510.1 hPa SW 4.7 mph /  7.6 km/h 6.4 mph /  10.3 km/h 90 % 0.0 in /  0 mm
05:45 4.5 °F /  -15.3 °C 3.2 °F /  -16 °C 1019.5 in /  34520.3 hPa SW 6.4 mph /  10.3 km/h 9.7 mph /  15.6 km/h 91 % 0.0 in /  0 mm
05:49 4.5 °F /  -15.3 °C 3.2 °F /  -16 °C 1019.5 in /  34520.3 hPa WSW 1.4 mph /  2.3 km/h 8.0 mph /  12.9 km/h 91 % 0.0 in /  0 mm
05:55 4.4 °F /  -15.3 °C 3.1 °F /  -16.1 °C 1019.5 in /  34520.3 hPa WSW 6.4 mph /  10.3 km/h 8.0 mph /  12.9 km/h 91 % 0.0 in /  0 mm
06:01 4.5 °F /  -15.3 °C 3.2 °F /  -16 °C 1019.5 in /  34520.3 hPa SW 3.2 mph /  5.1 km/h 11.3 mph /  18.2 km/h 91 % 0.0 in /  0 mm
06:03 4.5 °F /  -15.3 °C 3.2 °F /  -16 °C 1019.2 in /  34510.1 hPa WSW 7.9 mph /  12.7 km/h 11.3 mph /  18.2 km/h 91 % 0.0 in /  0 mm
06:09 4.6 °F /  -15.2 °C 3.3 °F /  -15.9 °C 1019.5 in /  34520.3 hPa WSW 7.9 mph /  12.7 km/h 9.7 mph /  15.6 km/h 91 % 0.0 in /  0 mm
06:15 4.6 °F /  -15.2 °C 3.3 °F /  -15.9 °C 1019.5 in /  34520.3 hPa SSW 1.4 mph /  2.3 km/h 6.4 mph /  10.3 km/h 91 % 0.0 in /  0 mm
06:21 4.6 °F /  -15.2 °C 3.3 °F /  -15.9 °C 1019.5 in /  34520.3 hPa WSW 3.2 mph /  5.1 km/h 11.3 mph /  18.2 km/h 91 % 0.0 in /  0 mm
06:27 4.7 °F /  -15.2 °C 3.4 °F /  -15.9 °C 1019.5 in /  34520.3 hPa Calm   8.0 mph /  12.9 km/h 91 % 0.0 in /  0 mm
06:33 4.8 °F /  -15.1 °C 3.3 °F /  -15.9 °C 1019.5 in /  34520.3 hPa WSW 7.9 mph /  12.7 km/h 9.7 mph /  15.6 km/h 90 % 0.0 in /  0 mm
06:39 4.8 °F /  -15.1 °C 3.3 °F /  -15.9 °C 1019.5 in /  34520.3 hPa SW 4.7 mph /  7.6 km/h 12.9 mph /  20.8 km/h 90 % 0.0 in /  0 mm
06:45 4.8 °F /  -15.1 °C 3.3 °F /  -15.9 °C 1019.5 in /  34520.3 hPa WSW 9.7 mph /  15.6 km/h 14.5 mph /  23.3 km/h 90 % 0.0 in /  0 mm
06:51 4.7 °F /  -15.2 °C 3.2 °F /  -16 °C 1019.5 in /  34520.3 hPa SW 9.7 mph /  15.6 km/h 11.3 mph /  18.2 km/h 90 % 0.0 in /  0 mm
06:57 4.6 °F /  -15.2 °C 3.1 °F /  -16.1 °C 1019.2 in /  34510.1 hPa WSW 6.4 mph /  10.3 km/h 6.4 mph /  10.3 km/h 90 % 0.0 in /  0 mm
07:01 4.6 °F /  -15.2 °C 3.3 °F /  -15.9 °C 1019.2 in /  34510.1 hPa SW 3.2 mph /  5.1 km/h 6.4 mph /  10.3 km/h 91 % 0.0 in /  0 mm
07:03 4.6 °F /  -15.2 °C 3.3 °F /  -15.9 °C 1019.2 in /  34510.1 hPa SSW 3.2 mph /  5.1 km/h 8.0 mph /  12.9 km/h 91 % 0.0 in /  0 mm
07:09 4.6 °F /  -15.2 °C 3.3 °F /  -15.9 °C 1018.8 in /  34496.6 hPa SW 6.4 mph /  10.3 km/h 11.3 mph /  18.2 km/h 91 % 0.0 in /  0 mm
07:15 4.5 °F /  -15.3 °C 3.2 °F /  -16 °C 1019.2 in /  34510.1 hPa SW 1.4 mph /  2.3 km/h 8.0 mph /  12.9 km/h 91 % 0.0 in /  0 mm
07:21 4.5 °F /  -15.3 °C 3.2 °F /  -16 °C 1019.2 in /  34510.1 hPa WSW 4.7 mph /  7.6 km/h 8.0 mph /  12.9 km/h 91 % 0.0 in /  0 mm
07:27 4.4 °F /  -15.3 °C 3.1 °F /  -16.1 °C 1019.5 in /  34520.3 hPa WSW 3.2 mph /  5.1 km/h 12.9 mph /  20.8 km/h 91 % 0.0 in /  0 mm
07:33 4.5 °F /  -15.3 °C 3.2 °F /  -16 °C 1019.5 in /  34520.3 hPa WSW 7.9 mph /  12.7 km/h 11.3 mph /  18.2 km/h 91 % 0.0 in /  0 mm
07:35 4.5 °F /  -15.3 °C 3.2 °F /  -16 °C 1019.5 in /  34520.3 hPa SW 6.4 mph /  10.3 km/h 12.9 mph /  20.8 km/h 91 % 0.0 in /  0 mm
07:41 4.6 °F /  -15.2 °C 3.3 °F /  -15.9 °C 1019.5 in /  34520.3 hPa WSW 7.9 mph /  12.7 km/h 12.9 mph /  20.8 km/h 91 % 0.0 in /  0 mm
07:45 4.5 °F /  -15.3 °C 3.2 °F /  -16 °C 1019.5 in /  34520.3 hPa SSW 3.2 mph /  5.1 km/h 8.0 mph /  12.9 km/h 91 % 0.0 in /  0 mm
07:47 4.4 °F /  -15.3 °C 3.1 °F /  -16.1 °C 1019.5 in /  34520.3 hPa SSW 3.2 mph /  5.1 km/h 8.0 mph /  12.9 km/h 91 % 0.0 in /  0 mm
07:53 4.3 °F /  -15.4 °C 3.1 °F /  -16.1 °C 1019.5 in /  34520.3 hPa SSW 3.2 mph /  5.1 km/h 8.0 mph /  12.9 km/h 92 % 0.0 in /  0 mm
07:59 4.2 °F /  -15.4 °C 3.0 °F /  -16.1 °C 1019.2 in /  34510.1 hPa SSW 3.2 mph /  5.1 km/h 6.4 mph /  10.3 km/h 92 % 0.0 in /  0 mm
08:07 4.0 °F /  -15.6 °C 2.8 °F /  -16.2 °C 1018.8 in /  34496.6 hPa SSE 1.4 mph /  2.3 km/h 4.8 mph /  7.7 km/h 92 % 0.0 in /  0 mm
08:13 3.9 °F /  -15.6 °C 2.7 °F /  -16.3 °C 1019.2 in /  34510.1 hPa Calm   3.2 mph /  5.1 km/h 92 % 0.0 in /  0 mm
08:25 3.8 °F /  -15.7 °C 2.8 °F /  -16.2 °C 1020.2 in /  34544 hPa SW 1.4 mph /  2.3 km/h 4.8 mph /  7.7 km/h 93 % 0.0 in /  0 mm
08:29 3.8 °F /  -15.7 °C 2.8 °F /  -16.2 °C 1020.2 in /  34544 hPa WSW 3.2 mph /  5.1 km/h 6.4 mph /  10.3 km/h 93 % 0.0 in /  0 mm
08:35 4.1 °F /  -15.5 °C 3.2 °F /  -16 °C 1020.5 in /  34554.1 hPa SW 3.2 mph /  5.1 km/h 4.8 mph /  7.7 km/h 94 % 0.0 in /  0 mm
08:41 4.3 °F /  -15.4 °C 3.3 °F /  -15.9 °C 1020.5 in /  34554.1 hPa SW 1.4 mph /  2.3 km/h 9.7 mph /  15.6 km/h 93 % 0.0 in /  0 mm
08:47 4.4 °F /  -15.3 °C 3.2 °F /  -16 °C 1020.5 in /  34554.1 hPa Calm   3.2 mph /  5.1 km/h 92 % 0.0 in /  0 mm
08:53 4.4 °F /  -15.3 °C 3.2 °F /  -16 °C 1020.5 in /  34554.1 hPa SSE 1.4 mph /  2.3 km/h 4.8 mph /  7.7 km/h 92 % 0.0 in /  0 mm
08:59 4.3 °F /  -15.4 °C 3.1 °F /  -16.1 °C 1020.9 in /  34567.7 hPa SSE 1.4 mph /  2.3 km/h 3.2 mph /  5.1 km/h 92 % 0.0 in /  0 mm
09:05 4.3 °F /  -15.4 °C 3.1 °F /  -16.1 °C 1020.5 in /  34554.1 hPa South 3.2 mph /  5.1 km/h 4.8 mph /  7.7 km/h 92 % 0.0 in /  0 mm
09:09 4.3 °F /  -15.4 °C 3.1 °F /  -16.1 °C 1020.5 in /  34554.1 hPa Calm   3.2 mph /  5.1 km/h 92 % 0.0 in /  0 mm
09:15 4.2 °F /  -15.4 °C 3.0 °F /  -16.1 °C 1020.5 in /  34554.1 hPa Calm   3.2 mph /  5.1 km/h 92 % 0.0 in /  0 mm
09:17 4.2 °F /  -15.4 °C 3.0 °F /  -16.1 °C 1020.9 in /  34567.7 hPa SE 1.4 mph /  2.3 km/h 1.6 mph /  2.6 km/h 92 % 0.0 in /  0 mm
09:23 4.2 °F /  -15.4 °C 3.0 °F /  -16.1 °C 1020.9 in /  34567.7 hPa ESE 3.2 mph /  5.1 km/h 3.2 mph /  5.1 km/h 92 % 0.0 in /  0 mm
09:29 4.3 °F /  -15.4 °C 3.3 °F /  -15.9 °C 1020.9 in /  34567.7 hPa SE 1.4 mph /  2.3 km/h 6.4 mph /  10.3 km/h 93 % 0.0 in /  0 mm
09:35 4.4 °F /  -15.3 °C 3.2 °F /  -16 °C 1020.9 in /  34567.7 hPa SSE 1.4 mph /  2.3 km/h 6.4 mph /  10.3 km/h 92 % 0.0 in /  0 mm
09:38 4.4 °F /  -15.3 °C 3.4 °F /  -15.9 °C 1020.9 in /  34567.7 hPa SE 4.7 mph /  7.6 km/h 6.4 mph /  10.3 km/h 93 % 0.0 in /  0 mm
09:41 4.6 °F /  -15.2 °C 3.4 °F /  -15.9 °C 1020.9 in /  34567.7 hPa ESE 3.2 mph /  5.1 km/h 4.8 mph /  7.7 km/h 92 % 0.0 in /  0 mm
09:47 4.6 °F /  -15.2 °C 3.4 °F /  -15.9 °C 1020.9 in /  34567.7 hPa SE 4.7 mph /  7.6 km/h 4.8 mph /  7.7 km/h 92 % 0.0 in /  0 mm
09:54 4.7 °F /  -15.2 °C 3.5 °F /  -15.8 °C 1020.5 in /  34554.1 hPa SE 1.4 mph /  2.3 km/h 9.7 mph /  15.6 km/h 92 % 0.0 in /  0 mm
09:59 4.7 °F /  -15.2 °C 3.5 °F /  -15.8 °C 1020.5 in /  34554.1 hPa SE 3.2 mph /  5.1 km/h 4.8 mph /  7.7 km/h 92 % 0.0 in /  0 mm
10:05 4.7 °F /  -15.2 °C 3.5 °F /  -15.8 °C 1020.5 in /  34554.1 hPa SSE 1.4 mph /  2.3 km/h 4.8 mph /  7.7 km/h 92 % 0.0 in /  0 mm
10:11 4.7 °F /  -15.2 °C 3.5 °F /  -15.8 °C 1020.2 in /  34544 hPa SSE 1.4 mph /  2.3 km/h 4.8 mph /  7.7 km/h 92 % 0.0 in /  0 mm
10:18 4.7 °F /  -15.2 °C 3.5 °F /  -15.8 °C 1020.2 in /  34544 hPa SSE 1.4 mph /  2.3 km/h 4.8 mph /  7.7 km/h 92 % 0.0 in /  0 mm
10:24 4.7 °F /  -15.2 °C 3.5 °F /  -15.8 °C 1020.2 in /  34544 hPa Calm   1.6 mph /  2.6 km/h 92 % 0.0 in /  0 mm
10:30 4.7 °F /  -15.2 °C 3.5 °F /  -15.8 °C 1019.9 in /  34533.8 hPa Calm   1.6 mph /  2.6 km/h 92 % 0.0 in /  0 mm
10:36 4.7 °F /  -15.2 °C 3.5 °F /  -15.8 °C 1019.9 in /  34533.8 hPa Calm   3.2 mph /  5.1 km/h 92 % 0.0 in /  0 mm
10:42 4.8 °F /  -15.1 °C 3.8 °F /  -15.7 °C 1019.9 in /  34533.8 hPa South 3.2 mph /  5.1 km/h 6.4 mph /  10.3 km/h 93 % 0.0 in /  0 mm
10:48 4.9 °F /  -15.1 °C 3.9 °F /  -15.6 °C 1019.9 in /  34533.8 hPa South 1.4 mph /  2.3 km/h 4.8 mph /  7.7 km/h 93 % 0.0 in /  0 mm
10:54 5.1 °F /  -14.9 °C 4.1 °F /  -15.5 °C 1020.2 in /  34544 hPa SSW 4.7 mph /  7.6 km/h 8.0 mph /  12.9 km/h 93 % 0.0 in /  0 mm
11:00 5.2 °F /  -14.9 °C 4.2 °F /  -15.4 °C 1020.2 in /  34544 hPa SW 9.7 mph /  15.6 km/h 9.7 mph /  15.6 km/h 93 % 0.0 in /  0 mm
11:06 5.3 °F /  -14.8 °C 4.4 °F /  -15.3 °C 1020.2 in /  34544 hPa SSW 3.2 mph /  5.1 km/h 9.7 mph /  15.6 km/h 94 % 0.0 in /  0 mm
11:12 5.6 °F /  -14.7 °C 4.7 °F /  -15.2 °C 1020.2 in /  34544 hPa SSW 4.7 mph /  7.6 km/h 9.7 mph /  15.6 km/h 94 % 0.0 in /  0 mm
11:18 5.7 °F /  -14.6 °C 4.8 °F /  -15.1 °C 1019.9 in /  34533.8 hPa SSW 3.2 mph /  5.1 km/h 6.4 mph /  10.3 km/h 94 % 0.0 in /  0 mm
11:24 5.8 °F /  -14.6 °C 4.9 °F /  -15.1 °C 1019.5 in /  34520.3 hPa SSW 4.7 mph /  7.6 km/h 8.0 mph /  12.9 km/h 94 % 0.0 in /  0 mm
11:30 5.8 °F /  -14.6 °C 4.9 °F /  -15.1 °C 1019.5 in /  34520.3 hPa SSW 7.9 mph /  12.7 km/h 8.0 mph /  12.9 km/h 94 % 0.0 in /  0 mm
11:36 5.9 °F /  -14.5 °C 5.0 °F /  -15 °C 1019.5 in /  34520.3 hPa SSW 3.2 mph /  5.1 km/h 6.4 mph /  10.3 km/h 94 % 0.0 in /  0 mm
11:42 6.1 °F /  -14.4 °C 5.2 °F /  -14.9 °C 1019.5 in /  34520.3 hPa SW 6.4 mph /  10.3 km/h 6.4 mph /  10.3 km/h 94 % 0.0 in /  0 mm
11:48 6.4 °F /  -14.2 °C 5.7 °F /  -14.6 °C 1019.5 in /  34520.3 hPa WSW 1.4 mph /  2.3 km/h 14.5 mph /  23.3 km/h 95 % 0.0 in /  0 mm
11:54 6.9 °F /  -13.9 °C 6.0 °F /  -14.4 °C 1019.5 in /  34520.3 hPa SW 7.9 mph /  12.7 km/h 16.1 mph /  25.9 km/h 94 % 0.0 in /  0 mm
12:02 7.2 °F /  -13.8 °C 6.1 °F /  -14.4 °C 1019.2 in /  34510.1 hPa SW 6.4 mph /  10.3 km/h 14.5 mph /  23.3 km/h 93 % 0.0 in /  0 mm
12:08 7.3 °F /  -13.7 °C 6.2 °F /  -14.3 °C 1018.8 in /  34496.6 hPa SW 13.0 mph /  20.9 km/h 19.3 mph /  31.1 km/h 93 % 0.0 in /  0 mm
12:14 7.4 °F /  -13.7 °C 6.3 °F /  -14.3 °C 1018.5 in /  34486.4 hPa SW 20.9 mph /  33.6 km/h 22.5 mph /  36.2 km/h 93 % 0.0 in /  0 mm
12:20 7.6 °F /  -13.6 °C 6.5 °F /  -14.2 °C 1018.5 in /  34486.4 hPa SW 19.5 mph /  31.4 km/h 25.7 mph /  41.4 km/h 93 % 0.0 in /  0 mm
12:30 7.7 °F /  -13.5 °C 6.5 °F /  -14.2 °C 1018.2 in /  34476.3 hPa SSW 17.7 mph /  28.5 km/h 22.5 mph /  36.2 km/h 92 % 0.0 in /  0 mm
12:36 7.8 °F /  -13.4 °C 6.7 °F /  -14.1 °C 1018.2 in /  34476.3 hPa SW 19.5 mph /  31.4 km/h 24.1 mph /  38.8 km/h 93 % 0.0 in /  0 mm
12:42 7.9 °F /  -13.4 °C 6.7 °F /  -14.1 °C 1018.5 in /  34486.4 hPa WSW 9.7 mph /  15.6 km/h 20.9 mph /  33.6 km/h 92 % 0.0 in /  0 mm
12:50 7.9 °F /  -13.4 °C 6.7 °F /  -14.1 °C 1018.2 in /  34476.3 hPa SW 17.7 mph /  28.5 km/h 22.5 mph /  36.2 km/h 92 % 0.0 in /  0 mm
12:56 8.0 °F /  -13.3 °C 6.8 °F /  -14 °C 1017.8 in /  34462.7 hPa SW 4.7 mph /  7.6 km/h 16.1 mph /  25.9 km/h 92 % 0.0 in /  0 mm
13:02 8.1 °F /  -13.3 °C 6.9 °F /  -13.9 °C 1018.2 in /  34476.3 hPa SW 17.7 mph /  28.5 km/h 22.5 mph /  36.2 km/h 92 % 0.0 in /  0 mm
13:08 8.2 °F /  -13.2 °C 7.0 °F /  -13.9 °C 1017.8 in /  34462.7 hPa SW 13.0 mph /  20.9 km/h 22.5 mph /  36.2 km/h 92 % 0.0 in /  0 mm
13:14 8.2 °F /  -13.2 °C 6.8 °F /  -14 °C 1017.8 in /  34462.7 hPa SW 16.3 mph /  26.2 km/h 20.9 mph /  33.6 km/h 91 % 0.0 in /  0 mm
13:20 8.3 °F /  -13.2 °C 6.9 °F /  -13.9 °C 1017.5 in /  34452.6 hPa SSW 22.7 mph /  36.5 km/h 24.1 mph /  38.8 km/h 91 % 0.0 in /  0 mm
13:26 8.3 °F /  -13.2 °C 6.8 °F /  -14 °C 1017.5 in /  34452.6 hPa SW 13.0 mph /  20.9 km/h 25.7 mph /  41.4 km/h 90 % 0.0 in /  0 mm
13:36 8.3 °F /  -13.2 °C 6.8 °F /  -14 °C 1017.8 in /  34462.7 hPa SSW 9.7 mph /  15.6 km/h 24.1 mph /  38.8 km/h 90 % 0.0 in /  0 mm
13:42 8.4 °F /  -13.1 °C 6.7 °F /  -14.1 °C 1017.8 in /  34462.7 hPa SW 9.7 mph /  15.6 km/h 16.1 mph /  25.9 km/h 89 % 0.0 in /  0 mm
13:44 8.4 °F /  -13.1 °C 6.7 °F /  -14.1 °C 1017.8 in /  34462.7 hPa SSW 9.7 mph /  15.6 km/h 17.7 mph /  28.5 km/h 89 % 0.0 in /  0 mm
13:50 8.4 °F /  -13.1 °C 6.7 °F /  -14.1 °C 1017.5 in /  34452.6 hPa SW 19.5 mph /  31.4 km/h 27.4 mph /  44.1 km/h 89 % 0.0 in /  0 mm
13:56 8.3 °F /  -13.2 °C 6.8 °F /  -14 °C 1017.5 in /  34452.6 hPa SSW 16.3 mph /  26.2 km/h 22.5 mph /  36.2 km/h 90 % 0.0 in /  0 mm
14:02 8.0 °F /  -13.3 °C 6.6 °F /  -14.1 °C 1017.5 in /  34452.6 hPa SW 19.5 mph /  31.4 km/h 24.1 mph /  38.8 km/h 91 % 0.0 in /  0 mm
14:08 7.8 °F /  -13.4 °C 6.7 °F /  -14.1 °C 1017.5 in /  34452.6 hPa SSW 11.1 mph /  17.9 km/h 16.1 mph /  25.9 km/h 93 % 0.0 in /  0 mm
14:14 7.8 °F /  -13.4 °C 6.9 °F /  -13.9 °C 1017.2 in /  34442.4 hPa South 13.0 mph /  20.9 km/h 17.7 mph /  28.5 km/h 94 % 0.0 in /  0 mm
14:18 7.7 °F /  -13.5 °C 6.8 °F /  -14 °C 1017.2 in /  34442.4 hPa SSW 11.1 mph /  17.9 km/h 17.7 mph /  28.5 km/h 94 % 0.0 in /  0 mm
14:24 7.7 °F /  -13.5 °C 6.9 °F /  -13.9 °C 1017.5 in /  34452.6 hPa SW 13.0 mph /  20.9 km/h 13.0 mph /  20.9 km/h 95 % 0.0 in /  0 mm
14:30 7.6 °F /  -13.6 °C 6.9 °F /  -13.9 °C 1017.2 in /  34442.4 hPa SSW 4.7 mph /  7.6 km/h 16.1 mph /  25.9 km/h 95 % 0.0 in /  0 mm
14:36 7.6 °F /  -13.6 °C 6.9 °F /  -13.9 °C 1016.8 in /  34428.8 hPa SSW 13.0 mph /  20.9 km/h 17.7 mph /  28.5 km/h 95 % 0.0 in /  0 mm
14:42 7.5 °F /  -13.6 °C 6.9 °F /  -13.9 °C 1016.8 in /  34428.8 hPa SW 7.9 mph /  12.7 km/h 16.1 mph /  25.9 km/h 96 % 0.0 in /  0 mm
14:54 7.5 °F /  -13.6 °C 6.9 °F /  -13.9 °C 1016.1 in /  34405.1 hPa South 4.7 mph /  7.6 km/h 11.3 mph /  18.2 km/h 96 % 0.0 in /  0 mm
14:58 7.5 °F /  -13.6 °C 6.9 °F /  -13.9 °C 1016.1 in /  34405.1 hPa South 7.9 mph /  12.7 km/h 9.7 mph /  15.6 km/h 96 % 0.0 in /  0 mm
15:04 7.5 °F /  -13.6 °C 6.9 °F /  -13.9 °C 1016.1 in /  34405.1 hPa SSE 3.2 mph /  5.1 km/h 11.3 mph /  18.2 km/h 96 % 0.3 in /  7.62 mm
15:08 7.5 °F /  -13.6 °C 6.9 °F /  -13.9 °C 1016.1 in /  34405.1 hPa SSE 7.9 mph /  12.7 km/h 16.1 mph /  25.9 km/h 96 % 0.3 in /  7.62 mm
15:14 7.5 °F /  -13.6 °C 6.9 °F /  -13.9 °C 1015.8 in /  34395 hPa SSE 11.1 mph /  17.9 km/h 16.1 mph /  25.9 km/h 96 % 0.3 in /  7.62 mm
15:20 7.5 °F /  -13.6 °C 6.9 °F /  -13.9 °C 1015.8 in /  34395 hPa SSW 11.1 mph /  17.9 km/h 14.5 mph /  23.3 km/h 96 % 0.3 in /  7.62 mm
15:26 7.5 °F /  -13.6 °C 6.9 °F /  -13.9 °C 1016.1 in /  34405.1 hPa SSW 7.9 mph /  12.7 km/h 16.1 mph /  25.9 km/h 96 % 0.3 in /  7.62 mm
15:32 7.5 °F /  -13.6 °C 6.9 °F /  -13.9 °C 1016.1 in /  34405.1 hPa SSW 3.2 mph /  5.1 km/h 11.3 mph /  18.2 km/h 96 % 0.3 in /  7.62 mm
15:40 7.6 °F /  -13.6 °C 7.0 °F /  -13.9 °C 1016.1 in /  34405.1 hPa SSE 3.2 mph /  5.1 km/h 9.7 mph /  15.6 km/h 96 % 0.3 in /  7.62 mm
15:46 7.6 °F /  -13.6 °C 7.0 °F /  -13.9 °C 1016.1 in /  34405.1 hPa SSW 7.9 mph /  12.7 km/h 8.0 mph /  12.9 km/h 96 % 0.3 in /  7.62 mm
15:50 7.5 °F /  -13.6 °C 6.9 °F /  -13.9 °C 1015.8 in /  34395 hPa SE 6.4 mph /  10.3 km/h 14.5 mph /  23.3 km/h 96 % 0.3 in /  7.62 mm
15:56 7.5 °F /  -13.6 °C 6.9 °F /  -13.9 °C 1015.8 in /  34395 hPa SSE 3.2 mph /  5.1 km/h 11.3 mph /  18.2 km/h 96 % 0.3 in /  7.62 mm
16:02 7.5 °F /  -13.6 °C 6.9 °F /  -13.9 °C 1015.8 in /  34395 hPa SSE 6.4 mph /  10.3 km/h 12.9 mph /  20.8 km/h 96 % 0.0 in /  0 mm
16:08 7.5 °F /  -13.6 °C 6.9 °F /  -13.9 °C 1015.8 in /  34395 hPa SSE 6.4 mph /  10.3 km/h 11.3 mph /  18.2 km/h 96 % 0.0 in /  0 mm
16:14 7.5 °F /  -13.6 °C 6.9 °F /  -13.9 °C 1015.8 in /  34395 hPa South 9.7 mph /  15.6 km/h 11.3 mph /  18.2 km/h 96 % 0.0 in /  0 mm
16:20 7.4 °F /  -13.7 °C 6.8 °F /  -14 °C 1015.8 in /  34395 hPa SSW 9.7 mph /  15.6 km/h 16.1 mph /  25.9 km/h 96 % 0.0 in /  0 mm
16:26 7.4 °F /  -13.7 °C 6.8 °F /  -14 °C 1015.8 in /  34395 hPa SSW 11.1 mph /  17.9 km/h 14.5 mph /  23.3 km/h 96 % 0.0 in /  0 mm
16:32 7.4 °F /  -13.7 °C 6.8 °F /  -14 °C 1015.8 in /  34395 hPa South 13.0 mph /  20.9 km/h 17.7 mph /  28.5 km/h 96 % 0.3 in /  7.62 mm
16:38 7.4 °F /  -13.7 °C 6.8 °F /  -14 °C 1015.8 in /  34395 hPa SSW 7.9 mph /  12.7 km/h 11.3 mph /  18.2 km/h 96 % 0.3 in /  7.62 mm
16:44 7.4 °F /  -13.7 °C 6.8 °F /  -14 °C 1015.5 in /  34384.8 hPa SE 7.9 mph /  12.7 km/h 12.9 mph /  20.8 km/h 96 % 0.3 in /  7.62 mm
16:50 7.4 °F /  -13.7 °C 6.8 °F /  -14 °C 1015.5 in /  34384.8 hPa SSW 4.7 mph /  7.6 km/h 12.9 mph /  20.8 km/h 96 % 0.3 in /  7.62 mm
16:56 7.4 °F /  -13.7 °C 6.8 °F /  -14 °C 1015.5 in /  34384.8 hPa SSW 9.7 mph /  15.6 km/h 14.5 mph /  23.3 km/h 96 % 0.5 in /  12.7 mm
17:02 7.4 °F /  -13.7 °C 6.8 °F /  -14 °C 1015.1 in /  34371.3 hPa SSW 6.4 mph /  10.3 km/h 12.9 mph /  20.8 km/h 96 % 0.5 in /  12.7 mm
17:08 7.4 °F /  -13.7 °C 7.0 °F /  -13.9 °C 1015.1 in /  34371.3 hPa South 7.9 mph /  12.7 km/h 14.5 mph /  23.3 km/h 97 % 0.5 in /  12.7 mm
17:14 7.4 °F /  -13.7 °C 7.0 °F /  -13.9 °C 1015.5 in /  34384.8 hPa SSW 6.4 mph /  10.3 km/h 14.5 mph /  23.3 km/h 97 % 0.5 in /  12.7 mm
17:20 7.4 °F /  -13.7 °C 7.0 °F /  -13.9 °C 1015.5 in /  34384.8 hPa SSW 9.7 mph /  15.6 km/h 12.9 mph /  20.8 km/h 97 % 0.5 in /  12.7 mm
17:26 7.5 °F /  -13.6 °C 7.1 °F /  -13.8 °C 1015.8 in /  34395 hPa SW 11.1 mph /  17.9 km/h 16.1 mph /  25.9 km/h 97 % 0.5 in /  12.7 mm
17:32 7.5 °F /  -13.6 °C 7.1 °F /  -13.8 °C 1015.8 in /  34395 hPa SSW 7.9 mph /  12.7 km/h 14.5 mph /  23.3 km/h 97 % 0.5 in /  12.7 mm
17:38 7.6 °F /  -13.6 °C 7.2 °F /  -13.8 °C 1015.8 in /  34395 hPa SSW 13.0 mph /  20.9 km/h 17.7 mph /  28.5 km/h 97 % 0.5 in /  12.7 mm
17:44 7.6 °F /  -13.6 °C 7.2 °F /  -13.8 °C 1015.8 in /  34395 hPa SW 9.7 mph /  15.6 km/h 16.1 mph /  25.9 km/h 97 % 0.5 in /  12.7 mm
17:50 7.6 °F /  -13.6 °C 7.2 °F /  -13.8 °C 1015.8 in /  34395 hPa SSW 7.9 mph /  12.7 km/h 14.5 mph /  23.3 km/h 97 % 0.5 in /  12.7 mm
17:56 7.6 °F /  -13.6 °C 7.2 °F /  -13.8 °C 1015.8 in /  34395 hPa SSW 7.9 mph /  12.7 km/h 12.9 mph /  20.8 km/h 97 % 0.5 in /  12.7 mm
17:59 7.6 °F /  -13.6 °C 7.2 °F /  -13.8 °C 1015.8 in /  34395 hPa South 6.4 mph /  10.3 km/h 11.3 mph /  18.2 km/h 97 % 0.5 in /  12.7 mm
18:04 7.7 °F /  -13.5 °C 7.3 °F /  -13.7 °C 1015.8 in /  34395 hPa SW 13.0 mph /  20.9 km/h 16.1 mph /  25.9 km/h 97 % 0.0 in /  0 mm
18:10 7.8 °F /  -13.4 °C 7.4 °F /  -13.7 °C 1015.8 in /  34395 hPa South 7.9 mph /  12.7 km/h 16.1 mph /  25.9 km/h 97 % 0.0 in /  0 mm
18:16 7.8 °F /  -13.4 °C 7.4 °F /  -13.7 °C 1015.5 in /  34384.8 hPa SW 7.9 mph /  12.7 km/h 11.3 mph /  18.2 km/h 97 % 0.0 in /  0 mm
18:22 7.8 °F /  -13.4 °C 7.4 °F /  -13.7 °C 1015.5 in /  34384.8 hPa SSW 9.7 mph /  15.6 km/h 11.3 mph /  18.2 km/h 97 % 0.0 in /  0 mm
18:28 7.8 °F /  -13.4 °C 7.4 °F /  -13.7 °C 1015.5 in /  34384.8 hPa SSW 6.4 mph /  10.3 km/h 9.7 mph /  15.6 km/h 97 % 0.3 in /  7.62 mm
18:36 7.9 °F /  -13.4 °C 7.5 °F /  -13.6 °C 1015.1 in /  34371.3 hPa SW 11.1 mph /  17.9 km/h 11.3 mph /  18.2 km/h 97 % 0.3 in /  7.62 mm
18:44 8.0 °F /  -13.3 °C 7.6 °F /  -13.6 °C 1015.1 in /  34371.3 hPa SW 7.9 mph /  12.7 km/h 11.3 mph /  18.2 km/h 97 % 0.3 in /  7.62 mm
18:50 8.1 °F /  -13.3 °C 7.7 °F /  -13.5 °C 1015.1 in /  34371.3 hPa South 3.2 mph /  5.1 km/h 11.3 mph /  18.2 km/h 97 % 0.3 in /  7.62 mm
18:56 8.1 °F /  -13.3 °C 7.7 °F /  -13.5 °C 1015.1 in /  34371.3 hPa SSW 7.9 mph /  12.7 km/h 11.3 mph /  18.2 km/h 97 % 0.3 in /  7.62 mm
19:02 8.2 °F /  -13.2 °C 7.8 °F /  -13.4 °C 1014.8 in /  34361.1 hPa SSW 4.7 mph /  7.6 km/h 9.7 mph /  15.6 km/h 97 % 0.3 in /  7.62 mm
19:08 8.2 °F /  -13.2 °C 7.8 °F /  -13.4 °C 1015.1 in /  34371.3 hPa SW 11.1 mph /  17.9 km/h 14.5 mph /  23.3 km/h 97 % 0.3 in /  7.62 mm
19:14 8.2 °F /  -13.2 °C 7.8 °F /  -13.4 °C 1015.1 in /  34371.3 hPa SSW 6.4 mph /  10.3 km/h 12.9 mph /  20.8 km/h 97 % 0.3 in /  7.62 mm
19:20 8.2 °F /  -13.2 °C 7.8 °F /  -13.4 °C 1015.1 in /  34371.3 hPa SSW 9.7 mph /  15.6 km/h 12.9 mph /  20.8 km/h 97 % 0.3 in /  7.62 mm
19:26 8.3 °F /  -13.2 °C 7.9 °F /  -13.4 °C 1015.1 in /  34371.3 hPa SW 6.4 mph /  10.3 km/h 9.7 mph /  15.6 km/h 97 % 0.0 in /  0 mm
19:32 8.4 °F /  -13.1 °C 8.1 °F /  -13.3 °C 1015.1 in /  34371.3 hPa SSW 6.4 mph /  10.3 km/h 12.9 mph /  20.8 km/h 98 % 0.3 in /  7.62 mm
19:38 8.5 °F /  -13.1 °C 8.2 °F /  -13.2 °C 1014.8 in /  34361.1 hPa SW 6.4 mph /  10.3 km/h 11.3 mph /  18.2 km/h 98 % 0.3 in /  7.62 mm
19:44 8.6 °F /  -13 °C 8.3 °F /  -13.2 °C 1015.1 in /  34371.3 hPa SW 7.9 mph /  12.7 km/h 8.0 mph /  12.9 km/h 98 % 0.3 in /  7.62 mm
19:50 8.6 °F /  -13 °C 8.3 °F /  -13.2 °C 1015.1 in /  34371.3 hPa SW 4.7 mph /  7.6 km/h 8.0 mph /  12.9 km/h 98 % 0.3 in /  7.62 mm
19:54 8.6 °F /  -13 °C 8.3 °F /  -13.2 °C 1015.1 in /  34371.3 hPa SSW 4.7 mph /  7.6 km/h 8.0 mph /  12.9 km/h 98 % 0.3 in /  7.62 mm
20:00 8.8 °F /  -12.9 °C 8.5 °F /  -13.1 °C 1015.1 in /  34371.3 hPa SW 4.7 mph /  7.6 km/h 8.0 mph /  12.9 km/h 98 % 0.3 in /  7.62 mm
20:06 9.1 °F /  -12.7 °C 8.8 °F /  -12.9 °C 1014.8 in /  34361.1 hPa SW 6.4 mph /  10.3 km/h 11.3 mph /  18.2 km/h 98 % 0.3 in /  7.62 mm
20:12 9.5 °F /  -12.5 °C 9.2 °F /  -12.7 °C 1014.8 in /  34361.1 hPa SW 9.7 mph /  15.6 km/h 12.9 mph /  20.8 km/h 98 % 0.3 in /  7.62 mm
20:18 9.8 °F /  -12.3 °C 9.5 °F /  -12.5 °C 1014.4 in /  34347.6 hPa SSW 11.1 mph /  17.9 km/h 19.3 mph /  31.1 km/h 98 % 0.3 in /  7.62 mm
20:24 10.1 °F /  -12.2 °C 9.8 °F /  -12.3 °C 1014.8 in /  34361.1 hPa SW 14.3 mph /  23 km/h 19.3 mph /  31.1 km/h 98 % 0.3 in /  7.62 mm
20:30 10.4 °F /  -12 °C 10.1 °F /  -12.2 °C 1014.8 in /  34361.1 hPa SW 4.7 mph /  7.6 km/h 19.3 mph /  31.1 km/h 98 % 0.0 in /  0 mm
20:36 10.7 °F /  -11.8 °C 10.4 °F /  -12 °C 1014.8 in /  34361.1 hPa SSW 16.3 mph /  26.2 km/h 22.5 mph /  36.2 km/h 98 % 0.0 in /  0 mm
20:42 10.8 °F /  -11.8 °C 10.5 °F /  -11.9 °C 1014.8 in /  34361.1 hPa SW 7.9 mph /  12.7 km/h 19.3 mph /  31.1 km/h 98 % 0.3 in /  7.62 mm
20:48 11.0 °F /  -11.7 °C 10.7 °F /  -11.8 °C 1014.8 in /  34361.1 hPa SW 7.9 mph /  12.7 km/h 20.9 mph /  33.6 km/h 98 % 0.3 in /  7.62 mm
20:54 11.2 °F /  -11.6 °C 10.9 °F /  -11.7 °C 1014.4 in /  34347.6 hPa WSW 9.7 mph /  15.6 km/h 24.1 mph /  38.8 km/h 98 % 0.3 in /  7.62 mm
21:03 11.3 °F /  -11.5 °C 11.0 °F /  -11.7 °C 1014.8 in /  34361.1 hPa West 20.9 mph /  33.6 km/h 33.8 mph /  54.4 km/h 98 % 0.3 in /  7.62 mm
21:09 11.4 °F /  -11.4 °C 11.1 °F /  -11.6 °C 1014.8 in /  34361.1 hPa WSW 11.1 mph /  17.9 km/h 25.7 mph /  41.4 km/h 98 % 0.3 in /  7.62 mm
21:15 11.4 °F /  -11.4 °C 11.1 °F /  -11.6 °C 1014.8 in /  34361.1 hPa West 27.4 mph /  44.1 km/h 38.6 mph /  62.1 km/h 98 % 0.3 in /  7.62 mm
21:21 11.6 °F /  -11.3 °C 11.1 °F /  -11.6 °C 1014.8 in /  34361.1 hPa WSW 16.3 mph /  26.2 km/h 24.1 mph /  38.8 km/h 97 % 0.3 in /  7.62 mm
21:27 11.6 °F /  -11.3 °C 11.1 °F /  -11.6 °C 1014.8 in /  34361.1 hPa West 19.5 mph /  31.4 km/h 25.7 mph /  41.4 km/h 97 % 0.3 in /  7.62 mm
21:33 11.6 °F /  -11.3 °C 11.0 °F /  -11.7 °C 1014.4 in /  34347.6 hPa West 11.1 mph /  17.9 km/h 22.5 mph /  36.2 km/h 96 % 0.3 in /  7.62 mm
21:39 11.6 °F /  -11.3 °C 11.0 °F /  -11.7 °C 1014.4 in /  34347.6 hPa WSW 19.5 mph /  31.4 km/h 29.0 mph /  46.7 km/h 96 % 0.3 in /  7.62 mm
21:43 11.6 °F /  -11.3 °C 11.0 °F /  -11.7 °C 1014.4 in /  34347.6 hPa WSW 22.7 mph /  36.5 km/h 32.2 mph /  51.8 km/h 96 % 0.0 in /  0 mm
21:49 11.7 °F /  -11.3 °C 11.1 °F /  -11.6 °C 1014.1 in /  34337.4 hPa WSW 14.3 mph /  23 km/h 27.4 mph /  44.1 km/h 96 % 0.0 in /  0 mm
21:53 11.7 °F /  -11.3 °C 11.1 °F /  -11.6 °C 1014.4 in /  34347.6 hPa SW 14.3 mph /  23 km/h 17.7 mph /  28.5 km/h 96 % 0.0 in /  0 mm
21:59 11.7 °F /  -11.3 °C 11.1 °F /  -11.6 °C 1014.4 in /  34347.6 hPa SW 9.7 mph /  15.6 km/h 25.7 mph /  41.4 km/h 96 % 0.0 in /  0 mm
22:05 11.7 °F /  -11.3 °C 11.1 °F /  -11.6 °C 1014.4 in /  34347.6 hPa West 14.3 mph /  23 km/h 20.9 mph /  33.6 km/h 96 % 0.0 in /  0 mm
22:11 11.7 °F /  -11.3 °C 11.1 °F /  -11.6 °C 1014.4 in /  34347.6 hPa WSW 19.5 mph /  31.4 km/h 29.0 mph /  46.7 km/h 96 % 0.0 in /  0 mm
22:19 11.6 °F /  -11.3 °C 11.0 °F /  -11.7 °C 1014.4 in /  34347.6 hPa SW 7.9 mph /  12.7 km/h 24.1 mph /  38.8 km/h 96 % 0.0 in /  0 mm
22:25 11.6 °F /  -11.3 °C 11.0 °F /  -11.7 °C 1014.4 in /  34347.6 hPa WSW 28.8 mph /  46.3 km/h 33.8 mph /  54.4 km/h 96 % 0.3 in /  7.62 mm
22:29 11.6 °F /  -11.3 °C 11.0 °F /  -11.7 °C 1014.4 in /  34347.6 hPa WSW 30.6 mph /  49.2 km/h 30.6 mph /  49.2 km/h 96 % 0.3 in /  7.62 mm
22:35 11.6 °F /  -11.3 °C 11.0 °F /  -11.7 °C 1014.4 in /  34347.6 hPa West 14.3 mph /  23 km/h 35.4 mph /  57 km/h 96 % 0.3 in /  7.62 mm
22:41 11.6 °F /  -11.3 °C 11.0 °F /  -11.7 °C 1014.4 in /  34347.6 hPa West 13.0 mph /  20.9 km/h 37.0 mph /  59.5 km/h 96 % 0.5 in /  12.7 mm
22:47 11.7 °F /  -11.3 °C 10.9 °F /  -11.7 °C 1014.1 in /  34337.4 hPa WSW 16.3 mph /  26.2 km/h 29.0 mph /  46.7 km/h 95 % 0.5 in /  12.7 mm
22:53 11.7 °F /  -11.3 °C 10.9 °F /  -11.7 °C 1014.1 in /  34337.4 hPa SSW 25.9 mph /  41.7 km/h 30.6 mph /  49.2 km/h 95 % 0.5 in /  12.7 mm
22:59 11.7 °F /  -11.3 °C 10.8 °F /  -11.8 °C 1014.1 in /  34337.4 hPa West 17.7 mph /  28.5 km/h 24.1 mph /  38.8 km/h 94 % 0.5 in /  12.7 mm
23:07 11.7 °F /  -11.3 °C 10.8 °F /  -11.8 °C 1013.8 in /  34327.3 hPa SW 16.3 mph /  26.2 km/h 35.4 mph /  57 km/h 94 % 0.5 in /  12.7 mm
23:13 11.6 °F /  -11.3 °C 10.8 °F /  -11.8 °C 1014.1 in /  34337.4 hPa WSW 32.0 mph /  51.5 km/h 32.2 mph /  51.8 km/h 95 % 0.5 in /  12.7 mm
23:21 11.6 °F /  -11.3 °C 10.8 °F /  -11.8 °C 1013.8 in /  34327.3 hPa SW 20.9 mph /  33.6 km/h 30.6 mph /  49.2 km/h 95 % 0.5 in /  12.7 mm
23:27 11.6 °F /  -11.3 °C 10.8 °F /  -11.8 °C 1013.8 in /  34327.3 hPa SW 19.5 mph /  31.4 km/h 32.2 mph /  51.8 km/h 95 % 0.3 in /  7.62 mm
23:33 11.6 °F /  -11.3 °C 10.8 °F /  -11.8 °C 1013.8 in /  34327.3 hPa SW 13.0 mph /  20.9 km/h 20.9 mph /  33.6 km/h 95 % 0.3 in /  7.62 mm
23:39 11.6 °F /  -11.3 °C 10.8 °F /  -11.8 °C 1013.8 in /  34327.3 hPa WSW 17.7 mph /  28.5 km/h 27.4 mph /  44.1 km/h 95 % 0.3 in /  7.62 mm
23:45 11.6 °F /  -11.3 °C 10.8 °F /  -11.8 °C 1013.4 in /  34313.7 hPa West 14.3 mph /  23 km/h 33.8 mph /  54.4 km/h 95 % 0.0 in /  0 mm
23:51 11.6 °F /  -11.3 °C 10.8 °F /  -11.8 °C 1013.4 in /  34313.7 hPa SW 22.7 mph /  36.5 km/h 25.7 mph /  41.4 km/h 95 % 0.0 in /  0 mm
23:57 11.6 °F /  -11.3 °C 10.8 °F /  -11.8 °C 1013.1 in /  34303.6 hPa WNW 17.7 mph /  28.5 km/h 22.5 mph /  36.2 km/h 95 % 0.0 in /  0 mm
Meteo18
Compliments of Weather Underground - 4 mb

Script developed by  Jim McMurry - jmcmurry@mwt.net Adapted for the template by  Wim van der Kuil - Leuven-Template.eu

You find our weather info also at:

European Weather Network

Weather Underground

Equipment we use:

Weather-station
Davis Vue

Weather-program
Meteobridge

Weather-server
Raspberry PI 2 B+

Provider
1 and 1

Davis Vue

Meteobridge

Raspberry PI 2 B+

1 and 1